Time;durP1;ratioP1;P1;durP2;ratioP2;P2;SDS_P1;SDS_P2;PMS_P1;PMS_P2;Temp;Humidity;BMP_temperature;BMP_pressure;BME280_temperature;BME280_humidity;BME280_pressure;Samples;Min_cycle;Max_cycle;Signal;HPM_P1;HPM_P2
2021/07/08 00:01:44;;;;;;;31.93;23.70;;;16.50;99.90;;;;;;5082522;28;20173;-83
2021/07/08 00:04:11;;;;;;;30.77;22.33;;;16.50;99.90;;;;;;5083603;28;20207;-83
2021/07/08 00:06:37;;;;;;;33.03;23.77;;;16.50;99.90;;;;;;5082632;28;20173;-83
2021/07/08 00:09:08;;;;;;;29.73;22.43;;;16.50;99.90;;;;;;5082458;28;20257;-84
2021/07/08 00:11:34;;;;;;;31.13;22.50;;;16.50;99.90;;;;;;5082613;28;20195;-83
2021/07/08 00:14:01;;;;;;;30.57;24.13;;;16.50;99.90;;;;;;5084862;28;20184;-83
2021/07/08 00:16:27;;;;;;;32.93;22.80;;;16.50;99.90;;;;;;5084198;28;20173;-83
2021/07/08 00:18:53;;;;;;;29.83;22.50;;;16.50;99.90;;;;;;5082692;28;20194;-83
2021/07/08 00:21:20;;;;;;;26.80;21.30;;;16.50;99.90;;;;;;5081850;28;20180;-83
2021/07/08 00:23:46;;;;;;;30.07;21.43;;;16.40;99.90;;;;;;5081371;28;20235;-83
2021/07/08 00:26:12;;;;;;;25.93;20.73;;;16.40;99.90;;;;;;5083698;28;20168;-83
2021/07/08 00:28:37;;;;;;;26.90;20.30;;;16.40;99.90;;;;;;5082896;28;20193;-83
2021/07/08 00:31:03;;;;;;;25.73;20.13;;;16.40;99.90;;;;;;5084173;28;20176;-83
2021/07/08 00:33:29;;;;;;;27.03;20.73;;;16.40;99.90;;;;;;5083118;28;20172;-83
2021/07/08 00:35:54;;;;;;;26.63;20.10;;;16.40;99.90;;;;;;5084854;28;20236;-83
2021/07/08 00:38:20;;;;;;;27.93;20.70;;;16.40;99.90;;;;;;5086784;28;20173;-83
2021/07/08 00:40:46;;;;;;;27.97;20.40;;;16.50;99.90;;;;;;5087128;28;20212;-84
2021/07/08 00:43:12;;;;;;;27.33;19.43;;;16.50;99.90;;;;;;5086524;28;20330;-83
2021/07/08 00:45:39;;;;;;;26.13;19.50;;;16.50;99.90;;;;;;5081838;28;20178;-83
2021/07/08 00:48:05;;;;;;;26.10;18.70;;;16.50;99.90;;;;;;5081687;28;20173;-83
2021/07/08 00:50:42;;;;;;;26.37;20.30;;;16.40;99.90;;;;;;5083814;28;20196;-83
2021/07/08 00:53:09;;;;;;;26.97;19.97;;;16.40;99.90;;;;;;5083750;28;20173;-83
2021/07/08 00:55:35;;;;;;;25.17;20.10;;;16.40;99.90;;;;;;5084353;28;20173;-84
2021/07/08 00:58:01;;;;;;;26.33;19.30;;;16.50;99.90;;;;;;5085579;28;20219;-84
2021/07/08 01:00:32;;;;;;;24.17;18.90;;;16.40;99.90;;;;;;5083591;28;20202;-84
2021/07/08 01:02:59;;;;;;;23.60;19.03;;;16.40;99.90;;;;;;5087885;28;20268;-83
2021/07/08 01:05:28;;;;;;;23.77;18.40;;;16.40;99.90;;;;;;5082933;28;20199;-83
2021/07/08 01:07:55;;;;;;;25.17;19.13;;;16.40;99.90;;;;;;5082442;28;20678;-83
2021/07/08 01:10:20;;;;;;;21.70;18.53;;;16.40;99.90;;;;;;5081340;28;20197;-83
2021/07/08 01:12:46;;;;;;;22.87;18.37;;;16.40;99.90;;;;;;5081383;28;20616;-83
2021/07/08 01:15:13;;;;;;;23.13;17.97;;;16.40;99.90;;;;;;5080587;28;20172;-83
2021/07/08 01:17:41;;;;;;;20.87;16.93;;;16.40;99.90;;;;;;5080509;28;20230;-83
2021/07/08 01:20:08;;;;;;;22.97;17.00;;;16.40;99.90;;;;;;5082367;28;20200;-83
2021/07/08 01:22:34;;;;;;;19.27;16.33;;;16.40;99.90;;;;;;5079367;28;20632;-83
2021/07/08 01:25:00;;;;;;;20.90;16.00;;;16.40;99.90;;;;;;5080168;28;20173;-83
2021/07/08 01:27:26;;;;;;;19.17;15.43;;;16.40;99.90;;;;;;5081054;28;20189;-83
2021/07/08 01:29:53;;;;;;;19.43;15.80;;;16.40;99.90;;;;;;5081248;28;20214;-84
2021/07/08 01:32:19;;;;;;;19.33;15.83;;;16.40;99.90;;;;;;5081354;28;20169;-83
2021/07/08 01:34:44;;;;;;;20.90;16.73;;;16.40;99.90;;;;;;5078748;28;20188;-83
2021/07/08 01:37:11;;;;;;;20.37;15.00;;;16.40;99.90;;;;;;5078935;28;20203;-83
2021/07/08 01:39:37;;;;;;;19.30;15.70;;;16.40;99.90;;;;;;5077596;28;20272;-83
2021/07/08 01:42:03;;;;;;;17.90;15.03;;;16.40;99.90;;;;;;5078032;28;20215;-83
2021/07/08 01:44:28;;;;;;;18.40;14.73;;;16.40;99.90;;;;;;5078513;28;20196;-83
2021/07/08 01:46:54;;;;;;;19.83;16.17;;;16.40;99.90;;;;;;5077921;28;20184;-83
2021/07/08 01:49:20;;;;;;;20.40;14.97;;;16.40;99.90;;;;;;5077097;28;20246;-84
2021/07/08 01:51:45;;;;;;;20.03;15.07;;;16.30;99.90;;;;;;5075848;28;20185;-83
2021/07/08 01:54:11;;;;;;;18.53;15.37;;;16.40;99.90;;;;;;5074686;28;20181;-83
2021/07/08 01:56:38;;;;;;;23.33;15.80;;;16.30;99.90;;;;;;5086930;28;20169;-83
2021/07/08 01:59:04;;;;;;;20.93;14.40;;;16.40;99.90;;;;;;5082710;28;20565;-84
2021/07/08 02:01:30;;;;;;;24.90;15.30;;;16.30;99.90;;;;;;5081189;28;20547;-84
2021/07/08 02:03:56;;;;;;;17.57;13.73;;;16.40;99.90;;;;;;5081624;28;20245;-84
2021/07/08 02:06:22;;;;;;;16.70;14.53;;;16.30;99.90;;;;;;5083262;28;20169;-84
2021/07/08 02:08:48;;;;;;;17.67;13.87;;;16.30;99.90;;;;;;5081959;28;20254;-84
2021/07/08 02:11:15;;;;;;;17.33;13.93;;;16.20;99.90;;;;;;5081954;28;20185;-84
2021/07/08 02:13:41;;;;;;;18.97;14.97;;;16.20;99.90;;;;;;5083158;28;20184;-84
2021/07/08 02:16:08;;;;;;;17.30;13.00;;;16.20;99.90;;;;;;5082486;28;20684;-84
2021/07/08 02:18:36;;;;;;;15.37;12.80;;;16.20;99.90;;;;;;5082135;28;20631;-84
2021/07/08 02:21:02;;;;;;;17.83;12.83;;;16.20;99.90;;;;;;5083476;28;20269;-84
2021/07/08 02:23:28;;;;;;;16.17;12.30;;;16.20;99.90;;;;;;5082885;28;20240;-85
2021/07/08 02:25:54;;;;;;;15.73;12.27;;;16.20;99.90;;;;;;5082627;28;20177;-84
2021/07/08 02:28:20;;;;;;;14.83;12.63;;;16.10;99.90;;;;;;5084659;28;20554;-84
2021/07/08 02:30:46;;;;;;;17.97;11.40;;;16.10;99.90;;;;;;5084297;28;20197;-84
2021/07/08 02:33:11;;;;;;;14.57;11.23;;;16.10;99.90;;;;;;5083199;28;20602;-84
2021/07/08 02:35:37;;;;;;;16.80;11.40;;;16.10;99.90;;;;;;5084785;28;20181;-85
2021/07/08 02:38:04;;;;;;;16.00;10.37;;;16.10;99.90;;;;;;5086738;28;20177;-85
2021/07/08 02:40:33;;;;;;;14.40;10.10;;;16.10;99.90;;;;;;5085578;28;20207;-85
2021/07/08 02:43:00;;;;;;;13.60;10.80;;;16.10;99.90;;;;;;5085204;28;20569;-84
2021/07/08 02:45:28;;;;;;;13.93;10.03;;;16.10;99.90;;;;;;5080545;28;20265;-85
2021/07/08 02:47:57;;;;;;;13.10;9.47;;;16.10;99.90;;;;;;5080391;28;20180;-84
2021/07/08 02:50:24;;;;;;;13.33;9.60;;;16.00;99.90;;;;;;5082135;28;20196;-84
2021/07/08 02:52:52;;;;;;;12.80;9.70;;;16.00;99.90;;;;;;5079983;28;20192;-84
2021/07/08 02:55:18;;;;;;;13.50;9.90;;;16.00;99.90;;;;;;5080433;28;20188;-84
2021/07/08 02:57:47;;;;;;;13.73;9.50;;;16.00;99.90;;;;;;5080791;28;20188;-84
2021/07/08 03:00:19;;;;;;;14.10;9.00;;;16.00;99.90;;;;;;5080418;28;20236;-84
2021/07/08 03:02:46;;;;;;;12.20;9.73;;;16.00;99.90;;;;;;5080556;28;20574;-84
2021/07/08 03:05:12;;;;;;;12.20;9.17;;;16.00;99.90;;;;;;5080655;28;20180;-84
2021/07/08 03:07:38;;;;;;;11.60;8.83;;;15.90;99.90;;;;;;5081011;28;20723;-84
2021/07/08 03:10:07;;;;;;;12.33;10.33;;;15.90;99.90;;;;;;5080823;28;20272;-84
2021/07/08 03:12:33;;;;;;;11.93;9.17;;;16.00;99.90;;;;;;5080286;28;20177;-84
2021/07/08 03:14:58;;;;;;;13.57;9.33;;;16.00;99.90;;;;;;5079936;28;20209;-84
2021/07/08 03:17:24;;;;;;;13.03;10.53;;;15.90;99.90;;;;;;5081638;28;20223;-84
2021/07/08 03:19:50;;;;;;;13.23;10.27;;;15.90;99.90;;;;;;5081110;28;20192;-84
2021/07/08 03:22:15;;;;;;;10.57;9.23;;;15.90;99.90;;;;;;5079875;28;20203;-83
2021/07/08 03:24:41;;;;;;;12.37;9.67;;;15.90;99.90;;;;;;5079898;28;20212;-84
2021/07/08 03:27:07;;;;;;;12.27;10.20;;;15.90;99.90;;;;;;5080867;28;20228;-84
2021/07/08 03:29:33;;;;;;;11.53;9.93;;;16.00;99.90;;;;;;5081613;28;20200;-84
2021/07/08 03:31:58;;;;;;;11.87;9.67;;;15.90;99.90;;;;;;5081171;28;20223;-84
2021/07/08 03:34:24;;;;;;;15.37;10.47;;;15.90;99.90;;;;;;5081254;28;20199;-84
2021/07/08 03:36:50;;;;;;;14.17;9.40;;;15.90;99.90;;;;;;5080519;28;20177;-84
2021/07/08 03:39:15;;;;;;;13.67;10.30;;;15.90;99.90;;;;;;5078736;28;20201;-83
2021/07/08 03:41:41;;;;;;;14.73;9.63;;;15.90;99.90;;;;;;5080240;28;20204;-83
2021/07/08 03:44:07;;;;;;;11.87;9.83;;;15.90;99.90;;;;;;5078953;28;20209;-83
2021/07/08 03:46:32;;;;;;;13.63;10.30;;;15.80;99.90;;;;;;5080249;28;20215;-84
2021/07/08 03:48:58;;;;;;;15.10;10.33;;;15.90;99.90;;;;;;5080199;28;20197;-83
2021/07/08 03:51:23;;;;;;;13.43;10.57;;;15.90;99.90;;;;;;5077397;28;20189;-83
2021/07/08 03:53:49;;;;;;;11.13;9.97;;;15.90;99.90;;;;;;5081234;28;20176;-83
2021/07/08 03:56:15;;;;;;;14.30;10.67;;;15.90;99.90;;;;;;5080240;28;20234;-83
2021/07/08 03:58:41;;;;;;;15.70;11.43;;;15.90;99.90;;;;;;5079850;28;20197;-83
2021/07/08 04:01:07;;;;;;;18.30;11.60;;;15.90;99.90;;;;;;5079132;28;20188;-83
2021/07/08 04:03:33;;;;;;;19.03;12.10;;;15.90;99.90;;;;;;5080531;28;20196;-83
2021/07/08 04:05:59;;;;;;;20.30;12.33;;;15.90;99.90;;;;;;5078191;28;20181;-83
2021/07/08 04:08:25;;;;;;;13.83;11.07;;;15.80;99.90;;;;;;5077690;28;20179;-83
2021/07/08 04:10:51;;;;;;;13.23;10.97;;;15.80;99.90;;;;;;5076453;28;20201;-83
2021/07/08 04:13:18;;;;;;;13.10;10.73;;;15.70;99.90;;;;;;5087000;28;20196;-83
2021/07/08 04:15:46;;;;;;;13.40;9.90;;;15.70;99.90;;;;;;5084198;28;20157;-83
2021/07/08 04:18:12;;;;;;;17.30;10.10;;;15.80;99.90;;;;;;5082669;28;20181;-83
2021/07/08 04:20:38;;;;;;;13.17;9.80;;;15.70;99.90;;;;;;5082431;28;20259;-83
2021/07/08 04:23:05;;;;;;;13.07;9.83;;;15.70;99.90;;;;;;5084664;28;20207;-83
2021/07/08 04:25:32;;;;;;;14.07;9.17;;;15.70;99.90;;;;;;5082782;28;20173;-83
2021/07/08 04:27:58;;;;;;;12.10;9.40;;;15.70;99.90;;;;;;5083554;28;20283;-83
2021/07/08 04:30:26;;;;;;;10.70;9.57;;;15.70;99.90;;;;;;5083507;28;20623;-83
2021/07/08 04:32:52;;;;;;;12.27;8.83;;;15.70;99.90;;;;;;5083082;28;20670;-83
2021/07/08 04:35:20;;;;;;;11.60;9.07;;;15.70;99.90;;;;;;5084769;28;20181;-83
2021/07/08 04:37:46;;;;;;;11.63;8.57;;;15.70;99.90;;;;;;5084040;28;20184;-83
2021/07/08 04:40:18;;;;;;;12.07;9.77;;;15.70;99.90;;;;;;5085368;28;20197;-84
2021/07/08 04:42:45;;;;;;;10.27;8.77;;;15.80;99.90;;;;;;5086966;28;20200;-82
2021/07/08 04:45:11;;;;;;;9.70;8.67;;;15.80;99.90;;;;;;5085422;28;20173;-83
2021/07/08 04:47:38;;;;;;;11.30;8.67;;;15.90;99.90;;;;;;5082029;28;20204;-83
2021/07/08 04:50:05;;;;;;;13.83;9.23;;;15.90;99.90;;;;;;5082542;28;20537;-83
2021/07/08 04:52:31;;;;;;;12.77;9.10;;;15.90;99.90;;;;;;5081447;28;20169;-82
2021/07/08 04:54:56;;;;;;;15.20;11.23;;;15.90;99.90;;;;;;5090533;28;20177;-82
2021/07/08 04:57:22;;;;;;;11.70;9.90;;;15.90;99.90;;;;;;5089314;28;20173;-82
2021/07/08 04:59:48;;;;;;;15.67;10.63;;;15.90;99.90;;;;;;5088342;28;20291;-83
2021/07/08 05:02:14;;;;;;;13.37;10.87;;;15.90;99.90;;;;;;5087663;28;20180;-82
2021/07/08 05:04:40;;;;;;;14.17;11.53;;;16.00;99.90;;;;;;5088227;28;20216;-82
2021/07/08 05:07:06;;;;;;;14.53;10.53;;;15.90;99.90;;;;;;5089526;28;20173;-82
2021/07/08 05:09:31;;;;;;;15.90;10.70;;;16.00;99.90;;;;;;5089522;28;20666;-82
2021/07/08 05:11:57;;;;;;;12.90;10.67;;;16.00;99.90;;;;;;5087377;28;20186;-82
2021/07/08 05:14:23;;;;;;;16.60;10.60;;;16.00;99.90;;;;;;5083105;28;20176;-83
2021/07/08 05:16:48;;;;;;;13.23;10.67;;;16.00;99.90;;;;;;5079504;28;20181;-82
2021/07/08 05:19:14;;;;;;;12.83;9.83;;;16.00;99.90;;;;;;5080676;28;20276;-83
2021/07/08 05:21:50;;;;;;;11.63;9.90;;;16.00;99.90;;;;;;5079478;28;20177;-83
2021/07/08 05:24:20;;;;;;;12.33;10.70;;;16.00;99.90;;;;;;5077937;28;20224;-83
2021/07/08 05:26:46;;;;;;;12.33;10.77;;;16.00;99.90;;;;;;5078488;28;20175;-83
2021/07/08 05:29:12;;;;;;;13.67;10.70;;;16.00;99.90;;;;;;5078839;28;20212;-83
2021/07/08 05:31:38;;;;;;;13.23;10.87;;;16.00;99.90;;;;;;5078386;28;20181;-83
2021/07/08 05:34:04;;;;;;;13.07;10.60;;;16.00;99.90;;;;;;5078985;28;20180;-82
2021/07/08 05:36:29;;;;;;;14.00;10.80;;;16.00;99.90;;;;;;5079639;28;20635;-83
2021/07/08 05:38:55;;;;;;;12.47;11.17;;;16.00;99.90;;;;;;5078503;28;20743;-83
2021/07/08 05:41:20;;;;;;;11.37;10.27;;;16.10;99.90;;;;;;5078013;28;20181;-82
2021/07/08 05:43:46;;;;;;;12.40;10.80;;;16.10;99.90;;;;;;5077563;28;20214;-83
2021/07/08 05:46:12;;;;;;;15.93;11.50;;;16.10;99.90;;;;;;5078680;28;20650;-83
2021/07/08 05:48:37;;;;;;;15.23;11.43;;;16.10;99.90;;;;;;5077855;28;20259;-83
2021/07/08 05:51:03;;;;;;;13.07;10.77;;;16.20;99.90;;;;;;5078587;28;20538;-83
2021/07/08 05:53:29;;;;;;;13.97;11.83;;;16.20;99.90;;;;;;5079069;28;20651;-83
2021/07/08 05:55:55;;;;;;;13.03;11.30;;;16.20;99.90;;;;;;5078104;28;20249;-82
2021/07/08 05:58:20;;;;;;;16.93;11.07;;;16.30;99.90;;;;;;5075585;28;20246;-83
2021/07/08 06:00:47;;;;;;;13.73;11.10;;;16.30;99.90;;;;;;5076392;28;20207;-82
2021/07/08 06:03:14;;;;;;;12.93;11.23;;;16.30;99.90;;;;;;5074767;28;20265;-82
2021/07/08 06:05:40;;;;;;;12.97;11.57;;;16.40;99.90;;;;;;5075007;28;20200;-82
2021/07/08 06:08:06;;;;;;;15.47;12.17;;;16.40;99.90;;;;;;5074731;28;20177;-82
2021/07/08 06:10:32;;;;;;;12.70;11.33;;;16.50;99.90;;;;;;5073986;28;20652;-82
2021/07/08 06:12:58;;;;;;;16.40;11.30;;;16.60;99.90;;;;;;5075574;28;20180;-84
2021/07/08 06:15:24;;;;;;;12.57;11.27;;;16.60;99.90;;;;;;5075414;28;20229;-83
2021/07/08 06:17:50;;;;;;;13.13;11.60;;;16.50;99.90;;;;;;5077040;28;20176;-83
2021/07/08 06:20:16;;;;;;;12.67;11.37;;;16.50;99.90;;;;;;5074199;28;20200;-83
2021/07/08 06:22:43;;;;;;;12.90;11.57;;;16.50;99.90;;;;;;5073894;28;20180;-82
2021/07/08 06:25:09;;;;;;;14.33;12.93;;;16.50;99.90;;;;;;5079681;28;20180;-83
2021/07/08 06:27:34;;;;;;;12.93;11.50;;;16.50;99.90;;;;;;5081465;28;20216;-83
2021/07/08 06:30:00;;;;;;;14.33;11.27;;;16.50;99.90;;;;;;5077492;28;20197;-83
2021/07/08 06:32:26;;;;;;;13.47;11.93;;;16.60;99.90;;;;;;5079402;28;20271;-84
2021/07/08 06:34:52;;;;;;;17.00;12.10;;;16.60;99.90;;;;;;5079241;28;20255;-83
2021/07/08 06:37:17;;;;;;;13.43;12.03;;;16.60;99.90;;;;;;5081541;28;20187;-83
2021/07/08 06:39:43;;;;;;;14.23;12.17;;;16.70;99.90;;;;;;5080149;28;20242;-83
2021/07/08 06:42:09;;;;;;;14.80;13.03;;;16.60;99.90;;;;;;5081094;28;20557;-83
2021/07/08 06:44:35;;;;;;;14.33;12.83;;;16.60;99.90;;;;;;5075831;28;20237;-83
2021/07/08 06:47:02;;;;;;;14.00;12.17;;;16.60;99.90;;;;;;5076532;28;20189;-83
2021/07/08 06:49:28;;;;;;;13.37;11.80;;;16.60;99.90;;;;;;5076952;28;20236;-83
2021/07/08 06:51:54;;;;;;;14.23;12.00;;;16.50;99.90;;;;;;5077683;28;20228;-83
2021/07/08 06:54:20;;;;;;;14.80;12.10;;;16.50;99.90;;;;;;5078405;28;20260;-83
2021/07/08 06:56:46;;;;;;;13.30;10.73;;;16.40;99.90;;;;;;5076105;28;20229;-83
2021/07/08 06:59:11;;;;;;;13.77;10.93;;;16.50;99.90;;;;;;5078902;28;20679;-83
2021/07/08 07:01:37;;;;;;;13.40;11.37;;;16.40;99.90;;;;;;5077673;28;20662;-83
2021/07/08 07:04:03;;;;;;;14.37;11.33;;;16.50;99.90;;;;;;5077829;28;20580;-83
2021/07/08 07:06:29;;;;;;;12.50;11.00;;;16.50;99.90;;;;;;5078136;28;20186;-84
2021/07/08 07:08:55;;;;;;;13.07;11.67;;;16.60;99.90;;;;;;5077075;28;20210;-84
2021/07/08 07:11:20;;;;;;;14.77;10.80;;;16.70;99.90;;;;;;5076839;28;20188;-83
2021/07/08 07:13:47;;;;;;;13.80;10.30;;;16.70;99.90;;;;;;5077295;28;20261;-84
2021/07/08 07:16:13;;;;;;;10.80;9.63;;;16.80;99.90;;;;;;5076251;28;20235;-83
2021/07/08 07:18:39;;;;;;;12.43;11.00;;;16.70;99.90;;;;;;5077012;28;20178;-84
2021/07/08 07:21:09;;;;;;;11.63;10.50;;;16.80;99.90;;;;;;5084051;28;20749;-83
2021/07/08 07:23:36;;;;;;;12.10;10.90;;;16.90;99.90;;;;;;5079992;28;20194;-84
2021/07/08 07:26:02;;;;;;;12.83;11.13;;;16.90;99.90;;;;;;5081077;28;20181;-84
2021/07/08 07:28:27;;;;;;;14.10;10.60;;;17.00;99.90;;;;;;5080422;28;20560;-83
2021/07/08 07:30:53;;;;;;;11.77;10.57;;;16.90;99.90;;;;;;5079880;28;20242;-83
2021/07/08 07:33:19;;;;;;;12.80;11.50;;;16.90;99.90;;;;;;5080819;28;20227;-83
2021/07/08 07:35:44;;;;;;;11.97;10.70;;;16.90;99.90;;;;;;5080021;28;20181;-83
2021/07/08 07:38:13;;;;;;;12.43;11.23;;;16.80;99.90;;;;;;5078861;28;20216;-83
2021/07/08 07:40:41;;;;;;;13.00;11.67;;;16.80;99.90;;;;;;5078235;28;20299;-83
2021/07/08 07:43:07;;;;;;;13.10;10.90;;;16.70;99.90;;;;;;5079808;28;20276;-83
2021/07/08 07:45:32;;;;;;;12.47;11.13;;;16.70;99.90;;;;;;5078507;28;20180;-83
2021/07/08 07:47:58;;;;;;;14.47;11.73;;;16.60;99.90;;;;;;5078534;28;20536;-83
2021/07/08 07:50:25;;;;;;;15.63;12.40;;;16.60;99.90;;;;;;5078517;28;20188;-83
2021/07/08 07:52:52;;;;;;;14.07;11.07;;;16.60;99.90;;;;;;5079921;28;20195;-83
2021/07/08 07:55:18;;;;;;;15.63;11.63;;;16.60;99.90;;;;;;5078901;28;20211;-83
2021/07/08 07:57:44;;;;;;;13.47;11.97;;;16.60;99.90;;;;;;5078543;28;20230;-83
2021/07/08 08:00:11;;;;;;;14.30;12.53;;;16.60;99.90;;;;;;5078418;28;20228;-83
2021/07/08 08:02:38;;;;;;;15.60;13.67;;;16.60;99.90;;;;;;5077648;28;20235;-83
2021/07/08 08:10:15;;;;;;;14.87;13.33;;;16.80;99.90;;;;;;5078859;28;20292;-84
2021/07/08 08:12:41;;;;;;;16.63;13.47;;;16.80;99.90;;;;;;5078155;28;20169;-83
2021/07/08 08:15:09;;;;;;;19.17;12.97;;;16.90;99.90;;;;;;5076660;28;20260;-83
2021/07/08 08:17:37;;;;;;;16.60;13.90;;;16.90;99.90;;;;;;5077789;28;20172;-83
2021/07/08 08:20:06;;;;;;;16.77;14.07;;;17.00;99.90;;;;;;5077564;28;20272;-83
2021/07/08 08:22:32;;;;;;;19.90;15.50;;;17.20;99.90;;;;;;5082179;28;20228;-83
2021/07/08 08:24:58;;;;;;;15.70;14.07;;;17.40;99.90;;;;;;5086182;28;20661;-83
2021/07/08 08:27:24;;;;;;;16.00;13.57;;;17.60;99.90;;;;;;5080253;28;20670;-84
2021/07/08 08:29:50;;;;;;;15.23;13.03;;;17.80;99.90;;;;;;5079719;28;20223;-84
2021/07/08 08:32:16;;;;;;;16.50;12.43;;;17.90;99.90;;;;;;5080699;28;20564;-83
2021/07/08 08:34:41;;;;;;;15.97;11.83;;;18.00;99.90;;;;;;5080707;28;20216;-83
2021/07/08 08:37:07;;;;;;;13.37;11.97;;;18.10;99.90;;;;;;5082729;28;20208;-83
2021/07/08 08:39:33;;;;;;;12.73;11.43;;;18.20;99.90;;;;;;5083305;28;20200;-83
2021/07/08 08:41:59;;;;;;;10.73;9.73;;;18.20;99.90;;;;;;5084787;28;20169;-83
2021/07/08 08:44:25;;;;;;;10.13;9.13;;;18.20;99.90;;;;;;5078486;28;20212;-83
2021/07/08 08:46:51;;;;;;;11.37;9.33;;;18.20;99.90;;;;;;5078587;28;20268;-83
2021/07/08 08:49:17;;;;;;;8.57;7.77;;;18.30;99.90;;;;;;5077995;28;20211;-83
2021/07/08 08:51:44;;;;;;;12.40;8.63;;;18.30;99.90;;;;;;5077545;28;20180;-83
2021/07/08 08:54:11;;;;;;;9.67;8.77;;;18.40;99.90;;;;;;5077562;28;20259;-83
2021/07/08 08:56:37;;;;;;;12.87;8.80;;;18.50;99.90;;;;;;5078942;28;20268;-83
2021/07/08 08:59:03;;;;;;;11.30;8.80;;;18.60;99.90;;;;;;5079479;28;20250;-83
2021/07/08 09:01:30;;;;;;;8.97;8.07;;;18.60;99.90;;;;;;5077189;28;20189;-83
2021/07/08 09:03:56;;;;;;;8.57;7.73;;;18.80;99.90;;;;;;5077165;28;20208;-83
2021/07/08 09:06:22;;;;;;;7.90;7.10;;;19.10;99.90;;;;;;5077135;28;20199;-83
2021/07/08 09:08:49;;;;;;;6.80;6.20;;;19.20;99.90;;;;;;5076467;28;20181;-83
2021/07/08 09:11:20;;;;;;;6.77;6.17;;;19.30;99.90;;;;;;5076209;28;20189;-83
2021/07/08 09:14:07;;;;;;;6.03;5.53;;;19.30;99.90;;;;;;5077082;28;20250;-83
2021/07/08 09:16:37;;;;;;;5.83;5.33;;;19.30;99.90;;;;;;5079482;28;20157;-83
2021/07/08 09:19:19;;;;;;;5.63;4.93;;;19.30;99.90;;;;;;5077573;28;20203;-83
2021/07/08 09:21:51;;;;;;;5.57;4.43;;;19.30;99.90;;;;;;5077907;28;20192;-83
2021/07/08 09:24:26;;;;;;;4.37;3.73;;;19.20;99.90;;;;;;5078454;28;20206;-83
2021/07/08 09:26:55;;;;;;;5.23;4.37;;;19.20;99.90;;;;;;5078206;28;20291;-83
2021/07/08 09:29:26;;;;;;;4.57;4.17;;;19.20;99.90;;;;;;5077231;28;20211;-82
2021/07/08 09:31:58;;;;;;;3.93;3.63;;;19.20;99.90;;;;;;5077381;28;20321;-83
2021/07/08 09:34:30;;;;;;;3.50;3.20;;;19.20;99.90;;;;;;5077010;28;20173;-83
2021/07/08 09:37:05;;;;;;;5.00;3.23;;;19.20;99.90;;;;;;5086349;28;20213;-82
2021/07/08 09:39:44;;;;;;;3.50;3.20;;;19.20;99.90;;;;;;5085047;28;20201;-82
2021/07/08 09:42:12;;;;;;;4.07;3.70;;;19.20;99.90;;;;;;5085073;28;20177;-82
2021/07/08 09:44:38;;;;;;;4.50;3.70;;;19.10;99.90;;;;;;5084005;28;20219;-82
2021/07/08 09:47:17;;;;;;;4.00;3.63;;;19.00;99.90;;;;;;5085742;28;20202;-82
2021/07/08 09:49:44;;;;;;;3.80;3.40;;;18.90;99.90;;;;;;5086316;28;20203;-83
2021/07/08 09:52:11;;;;;;;3.67;3.20;;;18.80;99.90;;;;;;5078593;28;20191;-83
2021/07/08 09:57:40;;;;;;;4.17;3.30;;;18.50;99.90;;;;;;5077287;28;20607;-82
2021/07/08 10:00:27;;;;;;;6.63;3.40;;;18.40;99.90;;;;;;5075392;28;20576;-83
2021/07/08 10:02:54;;;;;;;5.77;3.40;;;18.40;99.90;;;;;;5076900;28;20163;-82
2021/07/08 10:05:22;;;;;;;6.37;4.00;;;18.30;99.90;;;;;;5076566;28;20703;-83
2021/07/08 10:07:48;;;;;;;4.50;4.10;;;18.30;99.90;;;;;;5076749;28;20173;-83
2021/07/08 10:10:15;;;;;;;4.90;4.40;;;18.20;99.90;;;;;;5076872;28;20264;-83
2021/07/08 10:12:42;;;;;;;6.43;4.93;;;18.10;99.90;;;;;;5075821;28;20204;-83
2021/07/08 10:15:10;;;;;;;5.23;4.73;;;18.00;99.90;;;;;;5076959;28;20534;-82
2021/07/08 10:17:38;;;;;;;7.50;4.50;;;17.80;99.90;;;;;;5076589;28;20203;-83
2021/07/08 10:20:10;;;;;;;4.73;4.17;;;17.80;99.90;;;;;;5076695;28;20185;-83
2021/07/08 10:22:38;;;;;;;4.77;4.37;;;17.80;99.90;;;;;;5075286;28;20181;-83
2021/07/08 10:25:09;;;;;;;5.33;4.83;;;17.80;99.90;;;;;;5075679;28;20177;-83
2021/07/08 10:27:40;;;;;;;6.50;5.67;;;17.80;99.90;;;;;;5077367;28;20192;-83
2021/07/08 10:30:07;;;;;;;8.50;5.47;;;17.70;99.90;;;;;;5077480;28;20220;-83
2021/07/08 10:32:33;;;;;;;5.60;5.07;;;17.70;99.90;;;;;;5076478;28;20250;-83
2021/07/08 10:35:00;;;;;;;6.10;5.50;;;17.60;99.90;;;;;;5075509;28;20658;-83
2021/07/08 10:37:26;;;;;;;5.80;5.20;;;17.60;99.90;;;;;;5077271;28;20173;-83
2021/07/08 10:39:57;;;;;;;6.90;6.20;;;17.60;99.90;;;;;;5087655;28;20200;-83
2021/07/08 10:42:45;;;;;;;6.93;5.63;;;17.50;99.90;;;;;;5083146;28;20263;-83
2021/07/08 10:45:23;;;;;;;6.37;5.70;;;17.40;99.90;;;;;;5080493;28;20181;-83
2021/07/08 10:47:49;;;;;;;6.73;6.03;;;17.40;99.90;;;;;;5079789;28;20180;-83
2021/07/08 10:50:30;;;;;;;11.47;7.20;;;17.40;99.90;;;;;;5082194;28;20193;-84
2021/07/08 10:52:56;;;;;;;8.33;7.53;;;17.40;99.90;;;;;;5081943;28;20229;-83
2021/07/08 10:55:38;;;;;;;10.93;9.30;;;17.40;99.90;;;;;;5087345;28;20191;-83
2021/07/08 10:58:05;;;;;;;8.83;7.83;;;17.40;99.90;;;;;;5104442;28;20176;-83
2021/07/08 11:00:49;;;;;;;9.60;8.13;;;17.40;99.90;;;;;;5105486;28;20206;-84
2021/07/08 11:03:46;;;;;;;10.17;8.50;;;17.40;99.90;;;;;;5105399;28;20248;-83
2021/07/08 11:06:21;;;;;;;11.93;7.70;;;17.50;99.90;;;;;;5108288;28;20172;-84
2021/07/08 11:08:47;;;;;;;8.77;7.97;;;17.50;99.90;;;;;;5107886;28;20171;-84
2021/07/08 11:11:13;;;;;;;8.80;7.90;;;17.50;99.90;;;;;;5105898;28;20168;-84
2021/07/08 11:13:38;;;;;;;15.33;8.80;;;17.50;99.90;;;;;;5106920;28;20180;-84
2021/07/08 11:16:04;;;;;;;9.13;8.13;;;17.60;99.90;;;;;;5108153;28;20214;-83
2021/07/08 11:18:31;;;;;;;9.67;8.57;;;17.70;99.90;;;;;;5109130;28;20183;-84
2021/07/08 11:20:57;;;;;;;14.17;12.67;;;17.60;99.90;;;;;;5103813;28;20208;-84
2021/07/08 11:23:41;;;;;;;9.03;8.07;;;17.60;99.90;;;;;;5102711;28;20200;-84
2021/07/08 11:26:09;;;;;;;8.67;7.77;;;17.60;99.90;;;;;;5103349;28;20183;-84
2021/07/08 11:28:36;;;;;;;8.97;8.07;;;17.60;99.90;;;;;;5102657;28;20188;-84
2021/07/08 11:31:07;;;;;;;9.20;8.30;;;17.50;99.90;;;;;;5102758;28;20267;-84
2021/07/08 11:33:36;;;;;;;7.70;7.00;;;17.50;99.90;;;;;;5104213;28;20183;-84
2021/07/08 11:36:11;;;;;;;9.20;8.30;;;17.40;99.90;;;;;;5102695;28;20188;-84
2021/07/08 11:38:43;;;;;;;8.07;6.80;;;17.40;99.90;;;;;;5102682;28;20183;-84
2021/07/08 11:41:10;;;;;;;8.20;7.43;;;17.30;99.90;;;;;;5102555;28;20176;-84
2021/07/08 11:43:38;;;;;;;7.53;6.73;;;17.20;99.90;;;;;;5102740;28;20200;-84
2021/07/08 11:46:06;;;;;;;6.53;5.93;;;17.10;99.90;;;;;;5104196;28;20180;-84
2021/07/08 11:48:39;;;;;;;9.63;6.37;;;17.10;99.90;;;;;;5104178;28;20568;-84
2021/07/08 11:51:29;;;;;;;10.37;7.47;;;17.10;99.90;;;;;;5101132;28;20191;-83
2021/07/08 11:53:56;;;;;;;15.50;8.00;;;17.10;99.90;;;;;;5103102;28;20180;-84
2021/07/08 11:56:24;;;;;;;5.70;3.00;;;17.00;99.90;;;;;;5104865;28;20176;-84
2021/07/08 11:58:50;;;;;;;3.80;2.60;;;16.90;99.90;;;;;;5101881;28;20200;-84
2021/07/08 12:01:19;;;;;;;3.63;2.90;;;16.70;99.90;;;;;;5102126;28;20216;-84
2021/07/08 12:03:51;;;;;;;5.13;3.10;;;16.70;99.90;;;;;;5103524;28;20295;-84
2021/07/08 12:06:29;;;;;;;3.10;2.73;;;16.70;99.90;;;;;;5100902;28;20236;-84
2021/07/08 12:08:58;;;;;;;3.10;2.50;;;16.70;99.90;;;;;;5103745;28;20216;-84
2021/07/08 12:11:35;;;;;;;3.07;2.83;;;16.80;99.90;;;;;;5102316;28;20656;-84
2021/07/08 12:14:07;;;;;;;2.90;2.70;;;16.80;99.90;;;;;;5101588;28;20176;-84
2021/07/08 12:16:38;;;;;;;3.27;2.97;;;16.90;99.90;;;;;;5101873;28;20184;-84
2021/07/08 12:19:26;;;;;;;4.27;2.67;;;16.90;99.90;;;;;;5102595;28;20288;-84
2021/07/08 12:21:53;;;;;;;5.03;3.23;;;17.00;99.90;;;;;;5103499;28;20161;-84
2021/07/08 12:24:24;;;;;;;3.90;2.77;;;17.00;99.90;;;;;;5102393;28;20608;-84
2021/07/08 12:26:52;;;;;;;3.13;2.57;;;17.00;99.90;;;;;;5102479;28;20168;-85
2021/07/08 12:29:26;;;;;;;2.93;2.40;;;16.90;99.90;;;;;;5103654;28;20257;-85
2021/07/08 12:32:04;;;;;;;2.30;2.10;;;16.90;99.90;;;;;;5103048;28;20250;-85
2021/07/08 12:34:47;;;;;;;1.70;1.60;;;16.90;99.90;;;;;;5104011;28;20176;-85
2021/07/08 12:37:27;;;;;;;1.73;1.60;;;16.80;99.90;;;;;;5105222;28;20191;-85
2021/07/08 12:40:14;;;;;;;1.97;1.77;;;16.70;99.90;;;;;;5108333;28;20200;-85
2021/07/08 12:42:49;;;;;;;3.87;2.60;;;16.70;99.90;;;;;;5103270;28;20179;-85
2021/07/08 12:45:17;;;;;;;6.63;2.97;;;16.70;99.90;;;;;;5104550;28;20186;-85